createdAt,value
2019-02-16T00:00:56.191Z,0
2019-02-16T00:01:56.175Z,0
2019-02-16T00:02:56.155Z,0
2019-02-16T00:03:56.146Z,0
2019-02-16T00:04:56.125Z,0
2019-02-16T00:05:56.117Z,0
2019-02-16T00:06:56.099Z,0
2019-02-16T00:07:56.082Z,0
2019-02-16T00:08:56.069Z,0
2019-02-16T00:09:55.801Z,0
2019-02-16T00:10:56.033Z,0
2019-02-16T00:11:56.016Z,0
2019-02-16T00:12:55.998Z,0
2019-02-16T00:13:55.981Z,0
2019-02-16T00:14:55.971Z,0
2019-02-16T00:15:55.950Z,0
2019-02-16T00:16:55.935Z,0
2019-02-16T00:17:55.919Z,0
2019-02-16T00:18:55.921Z,0
2019-02-16T00:19:56.022Z,0
2019-02-16T00:21:03.573Z,0
2019-02-16T00:21:55.861Z,0
2019-02-16T00:22:55.845Z,0
2019-02-16T00:23:55.824Z,0
2019-02-16T00:24:55.805Z,0
2019-02-16T00:25:55.546Z,0
2019-02-16T00:26:55.772Z,0
2019-02-16T00:27:55.765Z,0
2019-02-16T00:28:55.737Z,0
2019-02-16T00:29:55.480Z,0
2019-02-16T00:30:55.708Z,0
2019-02-16T00:31:55.713Z,0
2019-02-16T00:32:55.862Z,0
2019-02-16T00:33:55.678Z,0
2019-02-16T00:34:55.642Z,0
2019-02-16T00:35:55.634Z,0
2019-02-16T00:36:55.623Z,0
2019-02-16T00:37:55.597Z,0
2019-02-16T00:38:56.686Z,0
2019-02-16T00:39:55.565Z,0
2019-02-16T00:40:55.544Z,0
2019-02-16T00:41:55.535Z,0
2019-02-16T00:42:55.516Z,0
2019-02-16T00:43:55.504Z,0
2019-02-16T00:44:55.487Z,0
2019-02-16T00:45:55.464Z,0
2019-02-16T00:46:55.448Z,0
2019-02-16T00:47:55.432Z,0
2019-02-16T00:48:55.415Z,0
2019-02-16T00:49:55.398Z,0
2019-02-16T00:50:55.377Z,0
2019-02-16T00:51:55.369Z,0
2019-02-16T00:52:55.347Z,0
2019-02-16T00:53:55.326Z,0
2019-02-16T00:54:55.312Z,0
2019-02-16T00:55:55.298Z,0
2019-02-16T00:56:55.278Z,0
2019-02-16T00:57:55.262Z,0
2019-02-16T00:58:55.246Z,0
2019-02-16T00:59:55.254Z,0
2019-02-16T01:00:55.219Z,0
2019-02-16T01:01:55.247Z,0
2019-02-16T01:02:55.191Z,0
2019-02-16T01:03:55.190Z,0
2019-02-16T01:04:55.203Z,0
2019-02-16T01:05:55.132Z,0
2019-02-16T01:06:55.173Z,0
2019-02-16T01:07:55.147Z,0
2019-02-16T01:08:55.135Z,0
2019-02-16T01:09:55.065Z,0
2019-02-16T01:10:55.160Z,0
2019-02-16T01:11:55.034Z,0
2019-02-16T01:12:55.021Z,0
2019-02-16T01:13:54.999Z,0
2019-02-16T01:14:55.147Z,0
2019-02-16T01:15:54.969Z,0
2019-02-16T01:16:55.220Z,0
2019-02-16T01:17:55.151Z,0
2019-02-16T01:18:54.919Z,0
2019-02-16T01:19:54.897Z,0
2019-02-16T01:20:55.130Z,0
2019-02-16T01:21:54.896Z,0
2019-02-16T01:22:55.121Z,0
2019-02-16T01:23:54.833Z,0
2019-02-16T01:24:54.820Z,0
2019-02-16T01:25:54.797Z,0
2019-02-16T01:26:54.790Z,0
2019-02-16T01:27:54.772Z,0
2019-02-16T01:28:54.749Z,0
2019-02-16T01:29:54.732Z,0
2019-02-16T01:30:54.726Z,0
2019-02-16T01:31:54.699Z,0
2019-02-16T01:32:54.689Z,0
2019-02-16T01:33:54.668Z,0
2019-02-16T01:34:54.658Z,0
2019-02-16T01:35:54.637Z,0
2019-02-16T01:36:54.621Z,0
2019-02-16T01:37:54.686Z,0
2019-02-16T01:38:54.617Z,0
2019-02-16T01:39:54.574Z,0
2019-02-16T01:40:54.592Z,0
2019-02-16T01:41:54.837Z,0
2019-02-16T01:42:54.520Z,0
2019-02-16T01:43:54.500Z,0
2019-02-16T01:44:54.481Z,0
2019-02-16T01:45:54.482Z,0
2019-02-16T01:46:54.457Z,0
2019-02-16T01:47:54.449Z,0
2019-02-16T01:48:54.426Z,0
2019-02-16T01:49:54.404Z,0
2019-02-16T01:50:54.384Z,0
2019-02-16T01:51:54.377Z,0
2019-02-16T01:52:54.359Z,0
2019-02-16T01:53:54.334Z,0
2019-02-16T01:54:54.372Z,0
2019-02-16T01:55:54.723Z,0
2019-02-16T01:56:54.286Z,0
2019-02-16T01:57:54.272Z,0
2019-02-16T01:58:54.256Z,0
2019-02-16T01:59:54.234Z,0
2019-02-16T02:00:54.221Z,0
2019-02-16T02:01:54.202Z,0
2019-02-16T02:02:54.182Z,0
2019-02-16T02:03:54.173Z,0
2019-02-16T02:04:54.151Z,0
2019-02-16T02:05:54.134Z,0
2019-02-16T02:06:54.118Z,0
2019-02-16T02:07:54.100Z,0
2019-02-16T02:08:54.126Z,0
2019-02-16T02:09:54.070Z,0
2019-02-16T02:10:54.051Z,0
2019-02-16T02:11:54.038Z,0
2019-02-16T02:12:54.018Z,0
2019-02-16T02:13:54.009Z,0
2019-02-16T02:14:53.980Z,0
2019-02-16T02:15:53.981Z,0
2019-02-16T02:16:53.949Z,0
2019-02-16T02:17:53.932Z,0
2019-02-16T02:18:53.915Z,0
2019-02-16T02:19:53.906Z,0
2019-02-16T02:20:53.881Z,0
2019-02-16T02:21:53.867Z,0
2019-02-16T02:22:54.036Z,0
2019-02-16T02:23:53.851Z,0
2019-02-16T02:24:53.815Z,0
2019-02-16T02:25:53.798Z,0
2019-02-16T02:26:53.787Z,0
2019-02-16T02:27:53.768Z,0
2019-02-16T02:28:53.748Z,0
2019-02-16T02:29:53.751Z,0
2019-02-16T02:30:53.730Z,0
2019-02-16T02:31:53.706Z,0
2019-02-16T02:32:53.682Z,0
2019-02-16T02:33:53.673Z,0
2019-02-16T02:34:53.646Z,0
2019-02-16T02:35:53.637Z,0
2019-02-16T02:36:53.622Z,0
2019-02-16T02:37:53.596Z,0
2019-02-16T02:38:53.581Z,0
2019-02-16T02:39:54.057Z,0
2019-02-16T02:40:53.552Z,0
2019-02-16T02:41:53.387Z,0
2019-02-16T02:42:53.524Z,0
2019-02-16T02:43:53.501Z,0
2019-02-16T02:44:53.488Z,0
2019-02-16T02:45:53.458Z,0
2019-02-16T02:46:53.503Z,0
2019-02-16T02:47:53.441Z,0
2019-02-16T02:48:53.419Z,0
2019-02-16T02:49:53.412Z,0
2019-02-16T02:50:53.408Z,0
2019-02-16T02:51:59.557Z,0
2019-02-16T02:52:53.346Z,0
2019-02-16T02:53:53.379Z,0
2019-02-16T02:54:53.316Z,0
2019-02-16T02:55:53.295Z,0
2019-02-16T02:56:53.275Z,0
2019-02-16T02:57:53.268Z,0
2019-02-16T02:58:53.313Z,0
2019-02-16T02:59:53.232Z,0
2019-02-16T03:00:53.210Z,0
2019-02-16T03:01:53.204Z,0
2019-02-16T03:02:53.176Z,0
2019-02-16T03:03:53.158Z,0
2019-02-16T03:04:53.138Z,0
2019-02-16T03:05:53.122Z,0
2019-02-16T03:06:53.108Z,0
2019-02-16T03:07:53.097Z,0
2019-02-16T03:08:53.095Z,0
2019-02-16T03:09:53.069Z,0
2019-02-16T03:10:53.060Z,0
2019-02-16T03:11:53.035Z,0
2019-02-16T03:12:53.022Z,0
2019-02-16T03:13:52.999Z,0
2019-02-16T03:14:53.003Z,0
2019-02-16T03:15:52.960Z,0
2019-02-16T03:16:52.939Z,0
2019-02-16T03:17:52.951Z,0
2019-02-16T03:18:52.683Z,0
2019-02-16T03:19:52.887Z,0
2019-02-16T03:20:52.878Z,0
2019-02-16T03:22:02.412Z,0
2019-02-16T03:22:52.862Z,0
2019-02-16T03:23:52.818Z,0
2019-02-16T03:24:53.050Z,0
2019-02-16T03:25:52.787Z,0
2019-02-16T03:26:52.592Z,0
2019-02-16T03:27:53.044Z,0
2019-02-16T03:28:52.752Z,0
2019-02-16T03:29:52.733Z,0
2019-02-16T03:30:53.309Z,0
2019-02-16T03:31:52.761Z,0
2019-02-16T03:32:53.372Z,0
2019-02-16T03:33:52.669Z,0
2019-02-16T03:34:52.627Z,0
2019-02-16T03:35:52.816Z,0
2019-02-16T03:36:52.925Z,0
2019-02-16T03:37:52.952Z,0
2019-02-16T03:38:52.573Z,0
2019-02-16T03:39:52.568Z,0
2019-02-16T03:40:52.584Z,0
2019-02-16T03:41:52.761Z,0
2019-02-16T03:42:52.839Z,0
2019-02-16T03:43:52.476Z,0
2019-02-16T03:44:52.458Z,0
2019-02-16T03:45:52.451Z,0
2019-02-16T03:46:52.438Z,0
2019-02-16T03:47:52.412Z,0
2019-02-16T03:48:52.388Z,0
2019-02-16T03:49:52.384Z,0
2019-02-16T03:50:52.356Z,0
2019-02-16T03:51:52.341Z,0
2019-02-16T03:52:52.337Z,0
2019-02-16T03:53:52.318Z,0
2019-02-16T03:54:52.293Z,0
2019-02-16T03:55:52.269Z,0
2019-02-16T03:56:52.263Z,0
2019-02-16T03:57:52.238Z,0
2019-02-16T03:58:52.217Z,0
2019-02-16T03:59:52.217Z,0
2019-02-16T04:00:52.189Z,0
2019-02-16T04:01:52.168Z,0
2019-02-16T04:02:52.172Z,0
2019-02-16T04:03:51.895Z,0
2019-02-16T04:04:52.118Z,0
2019-02-16T04:05:52.097Z,0
2019-02-16T04:06:52.087Z,0
2019-02-16T04:07:52.068Z,0
2019-02-16T04:08:52.046Z,0
2019-02-16T04:09:52.035Z,0
2019-02-16T04:10:52.054Z,0
2019-02-16T04:11:52.000Z,0
2019-02-16T04:12:52.020Z,0
2019-02-16T04:13:51.965Z,0
2019-02-16T04:14:51.964Z,0
2019-02-16T04:15:51.964Z,0
2019-02-16T04:16:51.915Z,0
2019-02-16T04:17:51.951Z,0
2019-02-16T04:18:51.887Z,0
2019-02-16T04:19:51.880Z,0
2019-02-16T04:20:52.056Z,0
2019-02-16T04:21:51.828Z,0
2019-02-16T04:22:51.815Z,0
2019-02-16T04:23:51.789Z,0
2019-02-16T04:24:51.772Z,0
2019-02-16T04:25:51.755Z,0
2019-02-16T04:26:51.746Z,0
2019-02-16T04:27:51.722Z,0
2019-02-16T04:28:51.719Z,0
2019-02-16T04:29:51.726Z,0
2019-02-16T04:30:51.674Z,0
2019-02-16T04:31:51.777Z,0
2019-02-16T04:32:51.826Z,0
2019-02-16T04:33:51.623Z,0
2019-02-16T04:34:51.634Z,0
2019-02-16T04:35:51.582Z,0
2019-02-16T04:36:51.844Z,0
2019-02-16T04:37:51.565Z,0
2019-02-16T04:38:51.540Z,0
2019-02-16T04:39:51.517Z,0
2019-02-16T04:40:51.503Z,0
2019-02-16T04:41:51.478Z,0
2019-02-16T04:42:51.457Z,0
2019-02-16T04:43:51.450Z,0
2019-02-16T04:44:51.431Z,0
2019-02-16T04:45:51.421Z,0
2019-02-16T04:46:51.395Z,0
2019-02-16T04:47:51.381Z,0
2019-02-16T04:48:51.371Z,0
2019-02-16T04:49:51.365Z,0
2019-02-16T04:50:51.322Z,0
2019-02-16T04:51:51.325Z,0
2019-02-16T04:52:51.303Z,0
2019-02-16T04:53:51.280Z,0
2019-02-16T04:54:51.278Z,0
2019-02-16T04:55:51.249Z,0
2019-02-16T04:56:51.242Z,0
2019-02-16T04:57:51.229Z,0
2019-02-16T04:58:50.946Z,0
2019-02-16T04:59:51.183Z,0
2019-02-16T05:00:51.154Z,0
2019-02-16T05:01:51.174Z,0
2019-02-16T05:02:51.130Z,0
2019-02-16T05:03:51.102Z,0
2019-02-16T05:04:51.090Z,0
2019-02-16T05:05:51.071Z,0
2019-02-16T05:06:51.066Z,0
2019-02-16T05:07:51.060Z,0
2019-02-16T05:08:51.030Z,0
2019-02-16T05:09:51.002Z,0
2019-02-16T05:10:50.768Z,0
2019-02-16T05:11:51.049Z,0
2019-02-16T05:12:50.983Z,0
2019-02-16T05:13:50.930Z,0
2019-02-16T05:14:50.911Z,0
2019-02-16T05:15:50.894Z,0
2019-02-16T05:16:50.890Z,0
2019-02-16T05:17:50.865Z,0
2019-02-16T05:18:50.842Z,0
2019-02-16T05:19:50.582Z,0
2019-02-16T05:20:50.585Z,0
2019-02-16T05:21:50.798Z,0
2019-02-16T05:22:51.997Z,0
2019-02-16T05:23:50.756Z,0
2019-02-16T05:24:50.899Z,0
2019-02-16T05:25:51.169Z,0
2019-02-16T05:26:50.727Z,0
2019-02-16T05:27:50.694Z,0
2019-02-16T05:28:50.676Z,0
2019-02-16T05:29:50.658Z,0
2019-02-16T05:30:50.700Z,0
2019-02-16T05:31:50.615Z,0
2019-02-16T05:32:50.603Z,0
2019-02-16T05:33:50.582Z,0
2019-02-16T05:34:50.582Z,0
2019-02-16T05:35:50.547Z,0
2019-02-16T05:36:50.552Z,0
2019-02-16T05:37:50.522Z,0
2019-02-16T05:38:50.556Z,0
2019-02-16T05:39:50.233Z,0
2019-02-16T05:40:50.522Z,0
2019-02-16T05:41:50.510Z,0
2019-02-16T05:42:50.331Z,0
2019-02-16T05:43:50.559Z,0
2019-02-16T05:44:50.398Z,4
2019-02-16T05:45:50.505Z,4
2019-02-16T05:46:50.490Z,0
2019-02-16T05:47:50.463Z,4
2019-02-16T05:48:50.560Z,0
2019-02-16T05:49:50.328Z,4
2019-02-16T05:50:50.552Z,4
2019-02-16T05:51:50.691Z,4
2019-02-16T05:52:59.207Z,8
2019-02-16T05:53:50.487Z,8
2019-02-16T05:54:50.216Z,12
2019-02-16T05:55:50.215Z,12
2019-02-16T05:56:49.950Z,16
2019-02-16T05:57:50.177Z,20
2019-02-16T05:58:50.414Z,20
2019-02-16T05:59:50.140Z,24
2019-02-16T06:00:50.113Z,28
2019-02-16T06:01:58.772Z,32
2019-02-16T06:02:50.072Z,36
2019-02-16T06:03:50.076Z,48
2019-02-16T06:04:50.040Z,52
2019-02-16T06:05:50.027Z,64
2019-02-16T06:06:49.765Z,72
2019-02-16T06:07:49.992Z,88
2019-02-16T06:08:49.970Z,100
2019-02-16T06:09:49.949Z,112
2019-02-16T06:10:49.939Z,132
2019-02-16T06:11:49.925Z,152
2019-02-16T06:12:49.902Z,172
2019-02-16T06:13:49.888Z,192
2019-02-16T06:14:49.639Z,212
2019-02-16T06:15:49.850Z,240
2019-02-16T06:16:49.839Z,268
2019-02-16T06:17:49.820Z,296
2019-02-16T06:18:49.794Z,328
2019-02-16T06:19:49.774Z,360
2019-02-16T06:20:49.763Z,392
2019-02-16T06:21:49.504Z,432
2019-02-16T06:22:49.739Z,468
2019-02-16T06:23:49.719Z,508
2019-02-16T06:24:49.687Z,552
2019-02-16T06:25:49.688Z,596
2019-02-16T06:26:49.673Z,640
2019-02-16T06:27:49.637Z,684
2019-02-16T06:28:49.632Z,732
2019-02-16T06:29:49.651Z,780
2019-02-16T06:30:49.589Z,824
2019-02-16T06:31:49.577Z,876
2019-02-16T06:32:49.569Z,920
2019-02-16T06:33:49.570Z,968
2019-02-16T06:34:49.520Z,1020
2019-02-16T06:35:49.500Z,1068
2019-02-16T06:36:49.481Z,1120
2019-02-16T06:37:49.466Z,1168
2019-02-16T06:38:49.449Z,1220
2019-02-16T06:39:49.427Z,1268
2019-02-16T06:40:49.424Z,1320
2019-02-16T06:41:49.414Z,1368
2019-02-16T06:42:49.380Z,1412
2019-02-16T06:43:49.362Z,1456
2019-02-16T06:44:49.349Z,1508
2019-02-16T06:45:49.349Z,1552
2019-02-16T06:46:49.302Z,1596
2019-02-16T06:47:49.284Z,1656
2019-02-16T06:48:49.278Z,1708
2019-02-16T06:49:49.255Z,1756
2019-02-16T06:50:49.234Z,1912
2019-02-16T06:51:49.224Z,2176
2019-02-16T06:52:49.248Z,2480
2019-02-16T06:53:49.183Z,2676
2019-02-16T06:54:48.924Z,2808
2019-02-16T06:55:49.166Z,2900
2019-02-16T06:56:49.131Z,3036
2019-02-16T06:57:49.119Z,3136
2019-02-16T06:58:49.106Z,3280
2019-02-16T06:59:49.089Z,3424
2019-02-16T07:00:49.064Z,3580
2019-02-16T07:01:49.065Z,3496
2019-02-16T07:02:49.042Z,2992
2019-02-16T07:03:49.012Z,3764
2019-02-16T07:04:49.003Z,3904
2019-02-16T07:05:48.979Z,4204
2019-02-16T07:06:49.260Z,4280
2019-02-16T07:07:48.950Z,4416
2019-02-16T07:08:51.205Z,4548
2019-02-16T07:09:48.921Z,4464
2019-02-16T07:10:48.911Z,4792
2019-02-16T07:11:48.894Z,4924
2019-02-16T07:12:48.877Z,4144
2019-02-16T07:13:48.870Z,4748
2019-02-16T07:14:48.851Z,5096
2019-02-16T07:15:48.829Z,4684
2019-02-16T07:16:48.578Z,4908
2019-02-16T07:17:48.801Z,4748
2019-02-16T07:18:48.789Z,5112
2019-02-16T07:19:48.778Z,5000
2019-02-16T07:20:48.769Z,4880
2019-02-16T07:21:48.749Z,3980
2019-02-16T07:22:48.740Z,5032
2019-02-16T07:23:48.799Z,4968
2019-02-16T07:24:48.241Z,4492
2019-02-16T07:25:48.715Z,5836
2019-02-16T07:26:48.688Z,5432
2019-02-16T07:27:48.672Z,5924
2019-02-16T07:28:48.659Z,6196
2019-02-16T07:29:48.648Z,6172
2019-02-16T07:30:48.634Z,6168
2019-02-16T07:31:48.660Z,6468
2019-02-16T07:32:48.652Z,6740
2019-02-16T07:33:48.599Z,6916
2019-02-16T07:34:48.591Z,7072
2019-02-16T07:35:48.572Z,7048
2019-02-16T07:36:48.596Z,7168
2019-02-16T07:37:48.561Z,7424
2019-02-16T07:38:48.538Z,7576
2019-02-16T07:39:48.521Z,7572
2019-02-16T07:40:48.512Z,7488
2019-02-16T07:41:48.505Z,7500
2019-02-16T07:42:48.491Z,7524
2019-02-16T07:43:48.475Z,7932
2019-02-16T07:44:48.468Z,8100
2019-02-16T07:45:48.453Z,8476
2019-02-16T07:46:48.440Z,8860
2019-02-16T07:47:48.426Z,9000
2019-02-16T07:48:48.438Z,8728
2019-02-16T07:49:48.414Z,8528
2019-02-16T07:50:48.647Z,5784
2019-02-16T07:51:48.405Z,3444
2019-02-16T07:52:48.376Z,3316
2019-02-16T07:53:48.360Z,3284
2019-02-16T07:54:48.351Z,3288
2019-02-16T07:55:48.350Z,3304
2019-02-16T07:56:48.325Z,3308
2019-02-16T07:57:48.330Z,3320
2019-02-16T07:58:48.308Z,3340
2019-02-16T07:59:48.049Z,3340
2019-02-16T08:00:48.283Z,3352
2019-02-16T08:01:48.276Z,3368
2019-02-16T08:02:48.266Z,3376
2019-02-16T08:03:48.297Z,3388
2019-02-16T08:04:48.249Z,3400
2019-02-16T08:05:48.006Z,3404
2019-02-16T08:06:48.211Z,3416
2019-02-16T08:07:50.006Z,3424
2019-02-16T08:08:48.206Z,3436
2019-02-16T08:09:48.176Z,3444
2019-02-16T08:10:48.171Z,3452
2019-02-16T08:11:48.157Z,3456
2019-02-16T08:12:48.143Z,3464
2019-02-16T08:13:48.125Z,3476
2019-02-16T08:14:48.125Z,3484
2019-02-16T08:15:48.102Z,3492
2019-02-16T08:16:47.846Z,3500
2019-02-16T08:17:48.076Z,3508
2019-02-16T08:18:48.072Z,3516
2019-02-16T08:19:48.058Z,3524
2019-02-16T08:20:48.048Z,3532
2019-02-16T08:21:48.028Z,3540
2019-02-16T08:22:48.022Z,3544
2019-02-16T08:23:48.004Z,3548
2019-02-16T08:24:47.990Z,3552
2019-02-16T08:25:47.975Z,3564
2019-02-16T08:26:47.960Z,3568
2019-02-16T08:27:47.951Z,3576
2019-02-16T08:28:47.938Z,3580
2019-02-16T08:29:47.919Z,3584
2019-02-16T08:30:47.911Z,3584
2019-02-16T08:31:47.896Z,3596
2019-02-16T08:32:47.884Z,3600
2019-02-16T08:33:47.864Z,3596
2019-02-16T08:34:47.860Z,3604
2019-02-16T08:35:47.851Z,3604
2019-02-16T08:36:47.834Z,3608
2019-02-16T08:37:47.823Z,3612
2019-02-16T08:38:47.807Z,3616
2019-02-16T08:39:47.796Z,3616
2019-02-16T08:40:47.823Z,3624
2019-02-16T08:41:47.763Z,3624
2019-02-16T08:42:47.759Z,3632
2019-02-16T08:43:47.745Z,3636
2019-02-16T08:44:47.730Z,3636
2019-02-16T08:45:47.715Z,3640
2019-02-16T08:46:47.711Z,3640
2019-02-16T08:47:47.689Z,3632
2019-02-16T08:48:47.671Z,3644
2019-02-16T08:49:47.667Z,3644
2019-02-16T08:50:47.650Z,3652
2019-02-16T08:51:47.641Z,3656
2019-02-16T08:52:47.624Z,3648
2019-02-16T08:53:56.623Z,3652
2019-02-16T08:54:47.596Z,3656
2019-02-16T08:55:49.474Z,3652
2019-02-16T08:56:47.571Z,3656
2019-02-16T08:57:47.565Z,3652
2019-02-16T08:58:47.542Z,3660
2019-02-16T08:59:47.537Z,3660
2019-02-16T09:00:47.525Z,3656
2019-02-16T09:01:47.517Z,3660
2019-02-16T09:02:47.497Z,3656
2019-02-16T09:03:47.497Z,3660
2019-02-16T09:04:47.474Z,3656
2019-02-16T09:05:47.464Z,3656
2019-02-16T09:06:47.445Z,3656
2019-02-16T09:07:47.441Z,3660
2019-02-16T09:08:47.193Z,3652
2019-02-16T09:09:47.412Z,3652
2019-02-16T09:10:47.405Z,3648
2019-02-16T09:11:47.407Z,3656
2019-02-16T09:12:47.371Z,3652
2019-02-16T09:13:47.358Z,3656
2019-02-16T09:14:47.353Z,3656
2019-02-16T09:15:47.336Z,3656
2019-02-16T09:16:47.329Z,3656
2019-02-16T09:17:47.311Z,3652
2019-02-16T09:18:47.300Z,3648
2019-02-16T09:19:47.295Z,3644
2019-02-16T09:20:47.272Z,3652
2019-02-16T09:21:47.269Z,3644
2019-02-16T09:22:47.251Z,3648
2019-02-16T09:23:47.249Z,3656
2019-02-16T09:24:47.229Z,3656
2019-02-16T09:25:47.230Z,3652
2019-02-16T09:26:47.210Z,3664
2019-02-16T09:27:47.194Z,3656
2019-02-16T09:28:47.184Z,3652
2019-02-16T09:29:47.171Z,3656
2019-02-16T09:30:47.159Z,3644
2019-02-16T09:31:47.147Z,3648
2019-02-16T09:32:47.133Z,3636
2019-02-16T09:33:47.131Z,3644
2019-02-16T09:34:47.123Z,3640
2019-02-16T09:35:46.866Z,3632
2019-02-16T09:36:47.095Z,3632
2019-02-16T09:37:47.085Z,3632
2019-02-16T09:38:47.072Z,3632
2019-02-16T09:39:47.358Z,3628
2019-02-16T09:40:47.055Z,3628
2019-02-16T09:41:47.048Z,3624
2019-02-16T09:42:46.786Z,3620
2019-02-16T09:43:47.014Z,3624
2019-02-16T09:44:47.023Z,3624
2019-02-16T09:45:46.995Z,3620
2019-02-16T09:46:46.984Z,3624
2019-02-16T09:47:46.978Z,3620
2019-02-16T09:48:46.967Z,3616
2019-02-16T09:49:46.952Z,3616
2019-02-16T09:50:46.942Z,3616
2019-02-16T09:51:46.942Z,3612
2019-02-16T09:52:46.921Z,3608
2019-02-16T09:53:46.910Z,3612
2019-02-16T09:54:46.897Z,3608
2019-02-16T09:55:46.898Z,3608
2019-02-16T09:56:46.881Z,3600
2019-02-16T09:57:46.870Z,3608
2019-02-16T09:58:46.864Z,3600
2019-02-16T09:59:46.846Z,3604
2019-02-16T10:00:46.836Z,3604
2019-02-16T10:01:46.833Z,3608
2019-02-16T10:02:46.587Z,3604
2019-02-16T10:03:46.811Z,3600
2019-02-16T10:04:47.039Z,3596
2019-02-16T10:05:46.798Z,3600
2019-02-16T10:06:46.781Z,3604
2019-02-16T10:07:46.770Z,3600
2019-02-16T10:08:46.755Z,3600
2019-02-16T10:09:46.750Z,3600
2019-02-16T10:10:48.772Z,3596
2019-02-16T10:11:46.731Z,3600
2019-02-16T10:12:46.729Z,3600
2019-02-16T10:13:46.719Z,3596
2019-02-16T10:14:46.694Z,3592
2019-02-16T10:15:46.690Z,3592
2019-02-16T10:16:46.683Z,3592
2019-02-16T10:17:46.671Z,3584
2019-02-16T10:18:46.670Z,3588
2019-02-16T10:19:46.653Z,3588
2019-02-16T10:20:47.632Z,3584
2019-02-16T10:21:46.634Z,3584
2019-02-16T10:22:47.288Z,3580
2019-02-16T10:23:46.612Z,3580
2019-02-16T10:24:46.606Z,3576
2019-02-16T10:25:46.590Z,3576
2019-02-16T10:26:46.581Z,3576
2019-02-16T10:27:46.577Z,3572
2019-02-16T10:28:46.574Z,3572
2019-02-16T10:29:46.575Z,3572
2019-02-16T10:30:46.563Z,3572
2019-02-16T10:31:46.541Z,3572
2019-02-16T10:32:46.547Z,3568
2019-02-16T10:33:46.582Z,3568
2019-02-16T10:34:46.514Z,3564
2019-02-16T10:35:46.507Z,3564
2019-02-16T10:36:46.494Z,3560
2019-02-16T10:37:46.485Z,3556
2019-02-16T10:38:46.475Z,3560
2019-02-16T10:39:46.497Z,3556
2019-02-16T10:40:46.459Z,3560
2019-02-16T10:41:46.451Z,3556
2019-02-16T10:42:46.439Z,3556
2019-02-16T10:43:46.430Z,3556
2019-02-16T10:44:46.425Z,3552
2019-02-16T10:45:46.412Z,3552
2019-02-16T10:46:46.400Z,3552
2019-02-16T10:47:46.410Z,3548
2019-02-16T10:48:46.385Z,3540
2019-02-16T10:49:46.376Z,3540
2019-02-16T10:50:46.365Z,3540
2019-02-16T10:51:46.356Z,3532
2019-02-16T10:52:46.359Z,3532
2019-02-16T10:53:46.349Z,3532
2019-02-16T10:54:46.340Z,3528
2019-02-16T10:55:46.331Z,3524
2019-02-16T10:56:46.315Z,3520
2019-02-16T10:57:46.308Z,3520
2019-02-16T10:58:46.361Z,3520
2019-02-16T10:59:48.221Z,3516
2019-02-16T11:00:46.281Z,3512
2019-02-16T11:01:46.272Z,3512
2019-02-16T11:02:46.267Z,3512
2019-02-16T11:03:46.254Z,3508
2019-02-16T11:04:46.248Z,3508
2019-02-16T11:05:46.235Z,3508
2019-02-16T11:06:46.231Z,3508
2019-02-16T11:07:46.227Z,3508
2019-02-16T11:08:46.229Z,3504
2019-02-16T11:09:45.978Z,3500
2019-02-16T11:10:46.196Z,3500
2019-02-16T11:11:47.936Z,3492
2019-02-16T11:12:46.176Z,3496
2019-02-16T11:13:46.173Z,3492
2019-02-16T11:14:46.174Z,3492
2019-02-16T11:15:46.153Z,3492
2019-02-16T11:16:46.144Z,3488
2019-02-16T11:17:46.132Z,3488
2019-02-16T11:18:46.124Z,3484
2019-02-16T11:19:46.137Z,3484
2019-02-16T11:20:46.109Z,3480
2019-02-16T11:21:46.107Z,3476
2019-02-16T11:22:46.092Z,3476
2019-02-16T11:23:47.849Z,3472
2019-02-16T11:24:46.073Z,3472
2019-02-16T11:25:45.833Z,3464
2019-02-16T11:26:46.058Z,3464
2019-02-16T11:27:47.512Z,3460
2019-02-16T11:28:46.043Z,3456
2019-02-16T11:29:46.032Z,3452
2019-02-16T11:30:46.032Z,3452
2019-02-16T11:31:46.033Z,3448
2019-02-16T11:32:46.124Z,3444
2019-02-16T11:33:46.009Z,3444
2019-02-16T11:34:45.996Z,3440
2019-02-16T11:35:47.546Z,3440
2019-02-16T11:36:45.981Z,3436
2019-02-16T11:37:45.966Z,3440
2019-02-16T11:38:45.968Z,3436
2019-02-16T11:39:45.950Z,3432
2019-02-16T11:40:45.941Z,3432
2019-02-16T11:41:45.937Z,3436
2019-02-16T11:42:45.928Z,3432
2019-02-16T11:43:45.938Z,3428
2019-02-16T11:44:45.916Z,3432
2019-02-16T11:45:45.913Z,3432
2019-02-16T11:46:45.901Z,3432
2019-02-16T11:47:45.890Z,3432
2019-02-16T11:48:45.884Z,3432
2019-02-16T11:49:45.871Z,3428
2019-02-16T11:50:45.868Z,3416
2019-02-16T11:51:45.627Z,3420
2019-02-16T11:52:45.859Z,3412
2019-02-16T11:53:45.848Z,3412
2019-02-16T11:54:52.789Z,3412
2019-02-16T11:55:45.834Z,3412
2019-02-16T11:56:45.606Z,3408
2019-02-16T11:57:45.823Z,3400
2019-02-16T11:58:45.822Z,3400
2019-02-16T11:59:45.805Z,3396
2019-02-16T12:00:47.453Z,3392
2019-02-16T12:01:47.941Z,3392
2019-02-16T12:02:46.938Z,3388
2019-02-16T12:03:45.767Z,3384
2019-02-16T12:04:45.760Z,3384
2019-02-16T12:05:45.786Z,3376
2019-02-16T12:06:45.751Z,3376
2019-02-16T12:07:45.734Z,3376
2019-02-16T12:08:45.731Z,3376
2019-02-16T12:09:45.727Z,3372
2019-02-16T12:10:45.712Z,3368
2019-02-16T12:11:45.707Z,3368
2019-02-16T12:12:45.707Z,3368
2019-02-16T12:13:45.687Z,3364
2019-02-16T12:14:45.700Z,3360
2019-02-16T12:15:45.684Z,3360
2019-02-16T12:16:45.668Z,3356
2019-02-16T12:17:45.669Z,3360
2019-02-16T12:18:45.703Z,3356
2019-02-16T12:19:45.652Z,3352
2019-02-16T12:20:45.640Z,3352
2019-02-16T12:21:47.467Z,3352
2019-02-16T12:22:45.676Z,3348
2019-02-16T12:23:45.620Z,3344
2019-02-16T12:24:55.782Z,3340
2019-02-16T12:25:45.612Z,3340
2019-02-16T12:26:45.600Z,3336
2019-02-16T12:27:45.583Z,3336
2019-02-16T12:28:45.580Z,3332
2019-02-16T12:29:45.577Z,3324
2019-02-16T12:30:45.561Z,3324
2019-02-16T12:31:45.557Z,3316
2019-02-16T12:32:45.360Z,3316
2019-02-16T12:33:45.538Z,3312
2019-02-16T12:34:45.535Z,3316
2019-02-16T12:35:45.535Z,3308
2019-02-16T12:36:45.524Z,3304
2019-02-16T12:37:45.514Z,3300
2019-02-16T12:38:45.505Z,3300
2019-02-16T12:39:45.497Z,3296
2019-02-16T12:40:45.500Z,3296
2019-02-16T12:41:45.483Z,3296
2019-02-16T12:42:45.487Z,3292
2019-02-16T12:43:45.540Z,3288
2019-02-16T12:44:45.458Z,3288
2019-02-16T12:45:53.289Z,3288
2019-02-16T12:46:45.451Z,3284
2019-02-16T12:47:45.443Z,3284
2019-02-16T12:48:45.431Z,3280
2019-02-16T12:49:45.429Z,3280
2019-02-16T12:50:45.180Z,3276
2019-02-16T12:51:45.415Z,3280
2019-02-16T12:52:45.402Z,3276
2019-02-16T12:53:45.399Z,3276
2019-02-16T12:54:45.389Z,3268
2019-02-16T12:55:45.387Z,3268
2019-02-16T12:56:46.766Z,3264
2019-02-16T12:57:45.373Z,3264
2019-02-16T12:58:45.358Z,3260
2019-02-16T12:59:45.364Z,3256
2019-02-16T13:00:45.348Z,3252
2019-02-16T13:01:45.343Z,3252
2019-02-16T13:02:45.330Z,3244
2019-02-16T13:03:45.326Z,3244
2019-02-16T13:04:45.358Z,3240
2019-02-16T13:05:45.307Z,3240
2019-02-16T13:06:47.223Z,3236
2019-02-16T13:07:45.314Z,3236
2019-02-16T13:08:45.065Z,3232
2019-02-16T13:09:47.461Z,3232
2019-02-16T13:10:45.295Z,3228
2019-02-16T13:11:45.299Z,3224
2019-02-16T13:12:45.265Z,3224
2019-02-16T13:13:45.296Z,3220
2019-02-16T13:14:45.268Z,3220
2019-02-16T13:15:45.249Z,3216
2019-02-16T13:16:45.237Z,3216
2019-02-16T13:17:45.222Z,3216
2019-02-16T13:18:46.982Z,3208
2019-02-16T13:19:45.214Z,3208
2019-02-16T13:20:45.237Z,3208
2019-02-16T13:21:45.200Z,3204
2019-02-16T13:22:45.199Z,3200
2019-02-16T13:23:47.113Z,3196
2019-02-16T13:24:45.174Z,3196
2019-02-16T13:25:45.160Z,3188
2019-02-16T13:26:45.156Z,3188
2019-02-16T13:27:45.149Z,3184
2019-02-16T13:28:45.152Z,3180
2019-02-16T13:29:45.138Z,3176
2019-02-16T13:30:45.133Z,3176
2019-02-16T13:31:45.124Z,3172
2019-02-16T13:32:45.112Z,3168
2019-02-16T13:33:45.159Z,3168
2019-02-16T13:34:45.100Z,3164
2019-02-16T13:35:45.095Z,3164
2019-02-16T13:36:45.085Z,3156
2019-02-16T13:37:44.849Z,3156
2019-02-16T13:38:44.836Z,3148
2019-02-16T13:39:45.077Z,3148
2019-02-16T13:40:45.057Z,3144
2019-02-16T13:41:45.051Z,3140
2019-02-16T13:42:45.043Z,3132
2019-02-16T13:43:45.047Z,3132
2019-02-16T13:44:45.027Z,3132
2019-02-16T13:45:45.021Z,3128
2019-02-16T13:46:45.015Z,3124
2019-02-16T13:47:45.004Z,3120
2019-02-16T13:48:45.007Z,3112
2019-02-16T13:49:44.993Z,3108
2019-02-16T13:50:44.987Z,3108
2019-02-16T13:51:44.980Z,3100
2019-02-16T13:52:44.967Z,3100
2019-02-16T13:53:44.969Z,3092
2019-02-16T13:54:44.954Z,3092
2019-02-16T13:55:44.947Z,3084